Date,TemperatureHighF,TemperatureAvgF,TemperatureLowF,DewpointHighF,DewpointAvgF,DewpointLowF,HumidityHigh,HumidityAvg,HumidityLow,PressureMaxIn,PressureMinIn,WindSpeedMaxMPH,WindSpeedAvgMPH,GustSpeedMaxMPH,PrecipitationSumIn
2013-2-1,55.1,47.1,41.4,47.7,43.6,40.1,96,88,75,30.36,30.23,13,4,21,0.01
2013-2-2,59.1,48.8,44.7,46.6,42.5,38.1,92,79,53,30.34,30.22,10,5,16,0.00
2013-2-3,47.7,46.7,45.1,45.3,44.3,43.4,94,91,88,30.35,30.24,5,1,8,0.00
2013-2-4,48.8,46.0,43.6,45.2,43.4,42.0,95,91,85,30.26,30.00,14,4,28,0.00
2013-2-5,49.7,47.0,44.6,47.9,44.8,42.4,96,92,86,30.09,29.94,16,10,29,0.20
2013-2-6,49.2,46.2,40.5,46.0,43.0,38.1,94,89,78,30.12,29.86,17,9,29,0.48
2013-2-7,44.9,41.0,36.1,41.6,38.6,34.8,95,91,80,30.17,29.96,15,5,24,0.09
2013-2-8,46.5,39.4,31.2,41.7,36.4,29.9,97,89,77,30.31,30.17,11,4,21,0.01
2013-2-9,45.8,42.6,38.4,45.0,41.1,35.7,97,94,90,30.33,30.30,5,2,10,0.03
2013-2-10,47.9,45.0,43.1,45.1,42.2,39.1,97,90,80,30.36,30.32,7,2,15,0.04
2013-2-11,47.2,44.9,42.6,46.4,41.6,38.6,97,88,75,30.43,30.34,7,3,11,0.24
2013-2-12,48.3,47.3,46.3,47.8,46.6,45.8,98,98,97,30.53,30.43,11,5,17,0.03
2013-2-13,47.5,47.0,46.5,47.0,46.5,46.0,98,98,97,30.53,30.48,8,5,12,0.05
2013-2-14,51.5,47.0,41.4,47.9,44.8,40.1,96,92,87,30.58,30.46,8,3,15,0.00
2013-2-15,61.4,48.5,42.6,51.0,45.0,41.0,95,88,58,30.47,30.21,8,3,15,0.01
2013-2-16,48.7,45.6,41.4,46.7,43.5,38.7,96,92,83,30.33,30.27,11,5,19,0.06
2013-2-17,46.1,41.5,37.7,41.8,37.9,35.6,100,87,73,30.33,30.10,7,2,11,0.07
2013-2-18,45.2,40.7,36.2,41.5,38.2,34.6,100,91,83,30.10,29.72,12,5,23,0.30
2013-2-19,48.1,41.8,36.8,42.9,38.6,34.6,95,88,75,30.04,29.66,9,4,19,0.01
2013-2-20,45.3,40.4,34.0,43.0,38.5,32.7,96,93,81,30.15,30.04,14,5,21,0.25
2013-2-21,46.4,44.5,40.9,45.5,41.4,37.6,100,89,75,30.26,30.15,16,8,28,0.22
2013-2-22,48.3,45.8,40.5,47.0,43.3,37.4,97,91,76,30.23,29.98,25,14,39,0.67
2013-2-23,47.8,43.2,38.7,40.1,38.0,35.3,93,82,71,30.47,30.15,19,7,35,0.06
2013-2-24,47.9,43.7,39.3,44.0,39.5,37.2,95,85,75,30.47,30.10,16,6,29,0.10
2013-2-25,47.5,44.6,38.9,46.0,39.5,35.8,96,82,70,30.42,30.08,22,11,31,0.05
2013-2-26,49.4,42.2,35.9,40.6,37.0,34.0,93,82,60,30.42,30.25,9,4,14,0.05
2013-2-27,49.7,46.2,42.6,48.6,44.4,38.8,99,93,81,30.31,30.21,12,5,24,0.23
2013-2-28,49.6,49.0,48.3,49.1,48.4,47.5,98,97,96,30.48,30.21,16,13,35,0.34